Data for 12/08/2008

Time Sea-Level Adjusted Pressure Absolute Pressure Temperature Relative Humidity Dew Point   
(mb) (inHg) (mb) (inHg) (C) (F) (%) (C) (F)
00:05 1009 29.8 838 24.75 -0 32 98 -0.4 31.4
00:10 1009 29.8 838 24.75 -0 31.9 98 -0.4 31.3
00:15 1009 29.8 838 24.75 -0.1 31.8 97 -0.5 31.1
00:20 1009 29.8 838 24.75 -0.2 31.6 98 -0.5 31
00:25 1009 29.8 838 24.75 -0.2 31.6 98 -0.5 31.1
00:30 1009 29.8 839 24.78 -0.2 31.7 98 -0.5 31.2
00:35 1009 29.8 839 24.78 -0.2 31.6 98 -0.5 31.1
00:40 1009 29.8 839 24.78 -0.2 31.6 98 -0.5 31.2
00:45 1009 29.8 839 24.78 -0.1 31.8 98 -0.5 31.2
00:50 1010 29.83 839 24.78 -0.1 31.8 98 -0.4 31.3
00:55 1010 29.83 839 24.78 -0.2 31.7 98 -0.5 31
01:00 1009 29.8 839 24.78 -0.4 31.3 98 -0.6 30.9
01:05 1010 29.83 839 24.78 -0.3 31.4 98 -0.6 31
01:10 1010 29.83 839 24.78 -0.3 31.5 98 -0.6 31
01:15 1009 29.8 839 24.78 -0.4 31.3 98 -0.7 30.8
01:20 1010 29.83 839 24.78 -0.5 31.1 98 -0.7 30.7
01:25 1010 29.83 839 24.78 -0.5 31 98 -0.8 30.6
01:30 1010 29.83 839 24.78 -0.6 31 98 -0.8 30.6
01:35 1010 29.83 839 24.78 -0.6 30.9 98 -0.8 30.5
01:40 1010 29.83 839 24.78 -0.6 30.9 99 -0.8 30.6
01:45 1010 29.83 839 24.78 -0.6 31 99 -0.8 30.6
01:50 1010 29.83 839 24.78 -0.6 31 98 -0.8 30.6
01:55 1010 29.83 839 24.78 -0.6 31 98 -0.8 30.6
02:00 1010 29.83 839 24.78 -0.5 31 99 -0.7 30.7
02:05 1010 29.83 839 24.78 -0.5 31 98 -0.8 30.6
02:10 1010 29.83 839 24.78 -0.5 31 98 -0.8 30.6
02:15 1010 29.83 839 24.78 -0.5 31.1 98 -0.8 30.6
02:20 1010 29.83 839 24.78 -0.5 31.1 98 -0.7 30.7
02:25 1010 29.83 839 24.78 -0.5 31.1 98 -0.8 30.6
02:30 1010 29.83 839 24.78 -0.6 31 98 -0.8 30.6
02:35 1010 29.83 839 24.78 -0.6 30.9 98 -0.8 30.5
02:40 1010 29.83 839 24.78 -0.7 30.8 98 -0.9 30.3
02:45 1010 29.83 839 24.78 -0.8 30.6 98 -1 30.2
02:50 1010 29.83 839 24.78 -0.9 30.4 98 -1.1 29.9
02:55 1010 29.83 839 24.78 -0.9 30.3 98 -1.2 29.8
03:00 1010 29.83 839 24.78 -1 30.2 98 -1.3 29.7
03:05 1010 29.83 839 24.78 -1 30.2 98 -1.3 29.6
03:10 1010 29.83 839 24.78 -1 30.1 98 -1.3 29.7
03:15 1010 29.83 839 24.78 -1 30.1 98 -1.4 29.5
03:20 1010 29.83 839 24.78 -1.1 30.1 98 -1.4 29.5
03:25 1010 29.83 839 24.78 -1.1 30.1 98 -1.4 29.5
03:30 1010 29.83 840 24.81 -1 30.1 98 -1.4 29.5
03:35 1010 29.83 840 24.81 -1 30.2 98 -1.3 29.6
03:40 1010 29.83 840 24.81 -1 30.2 98 -1.3 29.6
03:45 1010 29.83 840 24.81 -1 30.2 98 -1.3 29.7
03:50 1010 29.83 840 24.81 -0.9 30.3 98 -1.2 29.8
03:55 1010 29.83 840 24.81 -0.9 30.3 98 -1.2 29.8
04:00 1010 29.83 840 24.81 -0.9 30.4 98 -1.2 29.9
04:05 1011 29.85 840 24.81 -0.9 30.4 98 -1.2 29.9
04:10 1011 29.85 840 24.81 -0.9 30.3 98 -1.2 29.8
04:15 1011 29.85 840 24.81 -1 30.2 98 -1.3 29.6
04:20 1011 29.85 840 24.81 -1 30.2 98 -1.3 29.6
04:25 1011 29.85 840 24.81 -1 30.1 98 -1.4 29.6
04:30 1011 29.85 840 24.81 -1.1 30 98 -1.4 29.5
04:35 1011 29.85 840 24.81 -1.1 30.1 98 -1.4 29.5
04:40 1011 29.85 840 24.81 -1.1 30 98 -1.4 29.5
04:45 1011 29.85 840 24.81 -1.2 29.9 97 -1.5 29.3
04:50 1011 29.85 840 24.81 -1.2 29.9 97 -1.5 29.2
04:55 1011 29.85 840 24.81 -1.2 29.8 97 -1.6 29.1
05:00 1011 29.85 840 24.81 -1.3 29.6 97 -1.7 28.9
05:05 1011 29.85 840 24.81 -1.4 29.5 97 -1.8 28.8
05:10 1011 29.85 840 24.81 -1.4 29.4 97 -1.8 28.7
05:15 1011 29.85 840 24.81 -1.5 29.3 97 -1.9 28.6
05:20 1011 29.85 840 24.81 -1.5 29.3 97 -2 28.4
05:25 1011 29.85 840 24.81 -1.6 29.2 97 -2 28.3
05:30 1011 29.85 840 24.81 -1.6 29.1 96 -2.1 28.2
05:35 1011 29.85 840 24.81 -1.6 29 96 -2.2 28.1
05:40 1011 29.85 840 24.81 -1.7 29 96 -2.2 28
05:45 1011 29.85 840 24.81 -1.6 29.1 96 -2.1 28.1
05:50 1011 29.85 840 24.81 -1.7 29 96 -2.2 28
05:55 1011 29.85 840 24.81 -1.7 29 96 -2.2 28
06:00 1011 29.85 840 24.81 -1.7 28.9 96 -2.3 27.9
06:05 1011 29.85 840 24.81 -1.8 28.8 96 -2.4 27.7
06:10 1011 29.85 840 24.81 -1.8 28.7 96 -2.4 27.6
06:15 1011 29.85 841 24.83 -1.9 28.6 96 -2.4 27.6
06:20 1011 29.85 841 24.83 -1.9 28.6 96 -2.5 27.6
06:25 1011 29.85 841 24.83 -1.9 28.5 96 -2.5 27.5
06:30 1011 29.85 841 24.83 -2 28.4 96 -2.6 27.3
06:35 1011 29.85 841 24.83 -2.1 28.3 96 -2.7 27.2
06:40 1012 29.88 841 24.83 -2 28.4 96 -2.6 27.3
06:45 1012 29.88 841 24.83 -2 28.4 95 -2.6 27.2
06:50 1012 29.88 841 24.83 -2 28.4 95 -2.7 27.1
06:55 1012 29.88 841 24.83 -2 28.4 94 -2.9 26.8
07:00 1012 29.88 841 24.83 -2 28.3 94 -2.9 26.7
07:05 1012 29.88 841 24.83 -2.1 28.2 93 -3 26.5
07:10 1012 29.88 841 24.83 -2.2 28.1 93 -3.1 26.4
07:15 1012 29.88 841 24.83 -2.2 28 93 -3.2 26.3
07:20 1012 29.88 841 24.83 -2.3 27.9 93 -3.2 26.2
07:25 1012 29.88 841 24.83 -2.3 27.9 93 -3.3 26.1
07:30 1012 29.88 841 24.83 -2.4 27.7 93 -3.4 25.9
07:35 1012 29.88 842 24.86 -2.5 27.6 93 -3.4 25.8
07:40 1012 29.88 842 24.86 -2.6 27.4 93 -3.6 25.6
07:45 1012 29.88 842 24.86 -2.7 27.2 93 -3.7 25.4
07:50 1012 29.88 842 24.86 -2.8 26.9 93 -3.9 25
07:55 1012 29.88 842 24.86 -3 26.6 92 -4.1 24.6
08:00 1013 29.91 842 24.86 -3.2 26.2 92 -4.3 24.3
08:05 1012 29.88 842 24.86 -3.4 25.9 93 -4.4 24.1
08:10 1013 29.91 842 24.86 -3.5 25.7 93 -4.5 23.9
08:15 1013 29.91 842 24.86 -3.5 25.7 93 -4.5 23.9
08:20 1013 29.91 842 24.86 -3.5 25.7 92 -4.7 23.6
08:25 1013 29.91 842 24.86 -3.7 25.4 92 -4.7 23.5
08:30 1013 29.91 842 24.86 -3.6 25.5 93 -4.6 23.8
08:35 1013 29.91 842 24.86 -3.5 25.7 93 -4.5 23.9
08:40 1013 29.91 842 24.86 -3.5 25.8 92 -4.5 23.8
08:45 1013 29.91 842 24.86 -3.5 25.7 92 -4.6 23.8
08:50 1013 29.91 842 24.86 -3.4 26 92 -4.4 24
08:55 1013 29.91 842 24.86 -3.2 26.3 92 -4.4 24.1
09:00 1013 29.91 842 24.86 -3 26.6 91 -4.3 24.3
09:05 1013 29.91 842 24.86 -2.9 26.8 90 -4.3 24.3
09:10 1013 29.91 842 24.86 -2.9 26.9 89 -4.4 24.1
09:15 1013 29.91 842 24.86 -2.8 26.9 89 -4.4 24.1
09:20 1013 29.91 843 24.89 -2.8 26.9 89 -4.4 24.1
09:25 1013 29.91 843 24.89 -2.8 26.9 89 -4.4 24.1
09:30 1013 29.91 843 24.89 -2.8 27 89 -4.4 24.1
09:35 1013 29.91 843 24.89 -2.7 27.1 89 -4.3 24.2
09:40 1014 29.94 843 24.89 -2.8 27 88 -4.4 24
09:45 1014 29.94 843 24.89 -2.8 26.9 88 -4.6 23.8
09:50 1014 29.94 843 24.89 -2.9 26.8 88 -4.6 23.7
09:55 1014 29.94 843 24.89 -2.9 26.8 88 -4.6 23.6
10:00 1014 29.94 843 24.89 -2.8 27 88 -4.5 23.9
10:05 1014 29.94 843 24.89 -2.8 27 87 -4.6 23.7
10:10 1014 29.94 843 24.89 -2.8 27 88 -4.5 23.8
10:15 1014 29.94 843 24.89 -2.8 27 87 -4.6 23.8
10:20 1014 29.94 843 24.89 -2.8 27 87 -4.6 23.7
10:25 1014 29.94 843 24.89 -2.7 27.1 86 -4.8 23.4
10:30 1014 29.94 843 24.89 -2.6 27.3 85 -4.8 23.4
10:35 1014 29.94 844 24.92 -2.5 27.4 86 -4.6 23.7
10:40 1014 29.94 844 24.92 -2.4 27.6 86 -4.5 23.8
10:45 1014 29.94 844 24.92 -2.3 27.8 86 -4.4 24.1
10:50 1014 29.94 844 24.92 -2.2 28 85 -4.4 24
10:55 1014 29.94 844 24.92 -2.1 28.3 85 -4.3 24.2
11:00 1014 29.94 844 24.92 -2.1 28.3 85 -4.3 24.3
11:05 1014 29.94 844 24.92 -2.2 28.1 85 -4.3 24.2
11:10 1014 29.94 844 24.92 -2.2 28 86 -4.3 24.2
11:15 1014 29.94 844 24.92 -2.3 27.9 86 -4.3 24.2
11:20 1014 29.94 844 24.92 -2.4 27.8 87 -4.3 24.3
11:25 1014 29.94 844 24.92 -2.3 27.8 86 -4.3 24.3
11:30 1015 29.97 844 24.92 -2.2 28 86 -4.3 24.3
11:35 1015 29.97 844 24.92 -2 28.4 85 -4.2 24.4
11:40 1015 29.97 844 24.92 -1.8 28.7 84 -4.2 24.4
11:45 1015 29.97 844 24.92 -1.9 28.5 85 -4.1 24.6
11:50 1015 29.97 844 24.92 -2 28.4 86 -4.1 24.7
11:55 1015 29.97 844 24.92 -2 28.3 86 -4 24.8
12:00 1015 29.97 844 24.92 -1.9 28.6 86 -4 24.8
12:05 1015 29.97 844 24.92 -2 28.4 86 -4 24.8
12:10 1015 29.97 844 24.92 -2 28.3 87 -3.9 24.9
12:15 1015 29.97 844 24.92 -2.1 28.3 88 -3.8 25.1
12:20 1015 29.97 844 24.92 -2 28.4 87 -3.8 25.2
12:25 1015 29.97 844 24.92 -1.9 28.6 87 -3.7 25.3
12:30 1015 29.97 844 24.92 -1.9 28.5 87 -3.8 25.2
12:35 1015 29.97 844 24.92 -2.1 28.3 88 -3.8 25.1
12:40 1015 29.97 844 24.92 -2 28.4 86 -4.1 24.7
12:45 1015 29.97 844 24.92 -2 28.4 85 -4.1 24.6
12:50 1015 29.97 844 24.92 -1.9 28.5 84 -4.2 24.4
12:55 1015 29.97 844 24.92 -1.8 28.7 83 -4.3 24.2
13:00 1015 29.97 844 24.92 -2 28.4 83 -4.5 23.9
13:05 1015 29.97 844 24.92 -2 28.4 82 -4.7 23.6
13:10 1015 29.97 844 24.92 -1.8 28.7 81 -4.6 23.6
13:15 1015 29.97 844 24.92 -1.7 28.9 82 -4.5 23.9
13:20 1015 29.97 844 24.92 -1.9 28.6 82 -4.5 23.8
13:25 1015 29.97 844 24.92 -2.1 28.3 83 -4.6 23.7
13:30 1015 29.97 844 24.92 -2.3 27.9 83 -4.8 23.4
13:35 1015 29.97 844 24.92 -2.3 27.8 84 -4.7 23.5
13:40 1015 29.97 844 24.92 -2.2 28 83 -4.7 23.6
13:45 1015 29.97 844 24.92 -2.2 28 84 -4.6 23.7
13:50 1015 29.97 844 24.92 -2.4 27.7 84 -4.7 23.6
13:55 1015 29.97 844 24.92 -2.6 27.3 85 -4.8 23.3
14:00 1015 29.97 844 24.92 -2.7 27.2 84 -5 23.1
14:05 1015 29.97 844 24.92 -2.7 27.2 84 -5.1 22.9
14:10 1015 29.97 844 24.92 -2.5 27.4 83 -5 23
14:15 1015 29.97 844 24.92 -2.3 27.9 80 -5.3 22.5
14:20 1015 29.97 844 24.92 -2.1 28.2 80 -5.2 22.7
14:25 1015 29.97 844 24.92 -2 28.4 77 -5.4 22.3
14:30 1015 29.97 844 24.92 -2.1 28.1 78 -5.6 22
14:35 1015 29.97 845 24.95 -2.4 27.8 78 -5.7 21.8
14:40 1015 29.97 845 24.95 -2.4 27.7 79 -5.6 21.9
14:45 1016 30 845 24.95 -2.4 27.7 78 -5.7 21.8
14:50 1016 30 845 24.95 -2.6 27.4 77 -6.1 21
14:55 1016 30 845 24.95 -2.6 27.4 77 -6.1 21
15:00 1016 30 845 24.95 -2.6 27.3 75 -6.4 20.5
15:05 1016 30 845 24.95 -2.7 27.1 74 -6.7 19.9
15:10 1016 30 845 24.95 -2.7 27.1 76 -6.3 20.6
15:15 1016 30 845 24.95 -2.9 26.8 76 -6.5 20.3
15:20 1016 30 845 24.95 -3 26.6 76 -6.7 20
15:25 1016 30 845 24.95 -3.1 26.5 77 -6.6 20.1
15:30 1016 30 845 24.95 -3.3 26.1 76 -7 19.4
15:35 1016 30 846 24.98 -3.3 26.1 78 -6.6 20
15:40 1016 30 846 24.98 -3.3 26 79 -6.4 20.5
15:45 1017 30.03 846 24.98 -3.5 25.8 78 -6.7 19.9
15:50 1017 30.03 846 24.98 -3.6 25.5 79 -6.7 20
15:55 1017 30.03 846 24.98 -3.6 25.5 78 -6.9 19.6
16:00 1017 30.03 846 24.98 -3.5 25.6 77 -7 19.4
16:05 1017 30.03 846 24.98 -3.6 25.6 79 -6.7 20
16:10 1017 30.03 846 24.98 -3.7 25.3 79 -6.9 19.6
16:15 1017 30.03 846 24.98 -3.7 25.3 79 -6.9 19.6
16:20 1017 30.03 846 24.98 -3.7 25.4 77 -7.1 19.3
16:25 1017 30.03 846 24.98 -3.6 25.5 78 -6.9 19.5
16:30 1017 30.03 846 24.98 -3.8 25.2 79 -6.9 19.7
16:35 1017 30.03 846 24.98 -3.9 25 81 -6.7 20
16:40 1017 30.03 846 24.98 -4 24.8 80 -6.9 19.5
16:45 1017 30.03 847 25.01 -4.1 24.7 80 -7.1 19.2
16:50 1017 30.03 847 25.01 -4 24.8 79 -7.1 19.3
16:55 1017 30.03 847 25.01 -4 24.8 80 -7 19.3
17:00 1018 30.06 847 25.01 -4 24.8 78 -7.2 19
17:05 1018 30.06 847 25.01 -4.1 24.7 79 -7.2 19.1
17:10 1018 30.06 847 25.01 -4.2 24.5 80 -7.2 19.1
17:15 1018 30.06 847 25.01 -4.2 24.4 79 -7.3 18.9
17:20 1018 30.06 847 25.01 -4.2 24.4 80 -7.2 19.1
17:25 1018 30.06 847 25.01 -4.3 24.2 79 -7.4 18.7
17:30 1018 30.06 847 25.01 -4.4 24.1 79 -7.4 18.7
17:35 1018 30.06 847 25.01 -4.3 24.3 79 -7.5 18.6
17:40 1018 30.06 847 25.01 -4.2 24.4 79 -7.4 18.7
17:45 1018 30.06 847 25.01 -4.4 24.1 80 -7.3 18.8
17:50 1018 30.06 847 25.01 -4.5 23.9 80 -7.5 18.5
17:55 1018 30.06 847 25.01 -4.6 23.7 79 -7.6 18.2
18:00 1018 30.06 847 25.01 -4.6 23.7 79 -7.7 18.1
18:05 1018 30.06 847 25.01 -4.6 23.7 78 -7.8 17.9
18:10 1018 30.06 847 25.01 -4.7 23.6 79 -7.8 17.9
18:15 1018 30.06 847 25.01 -4.8 23.3 80 -7.8 17.9
18:20 1018 30.06 847 25.01 -5.2 22.7 81 -8 17.6
18:25 1018 30.06 847 25.01 -5.6 21.9 82 -8.3 17.1
18:30 1018 30.06 847 25.01 -5.8 21.6 82 -8.3 17
18:35 1018 30.06 847 25.01 -5.8 21.5 83 -8.3 17.1
18:40 1018 30.06 848 25.04 -5.9 21.5 84 -8.2 17.3
18:45 1018 30.06 848 25.04 -5.7 21.8 83 -8.1 17.4
18:50 1018 30.06 848 25.04 -5.2 22.6 82 -7.8 18
18:55 1018 30.06 848 25.04 -4.8 23.3 82 -7.5 18.6
19:00 1018 30.06 848 25.04 -4.7 23.5 81 -7.5 18.5
19:05 1019 30.09 848 25.04 -4.8 23.4 80 -7.8 18
19:10 1019 30.09 848 25.04 -4.8 23.4 79 -7.9 17.8
19:15 1019 30.09 848 25.04 -4.8 23.3 79 -7.9 17.7
19:20 1019 30.09 848 25.04 -5.2 22.6 82 -7.9 17.8
19:25 1019 30.09 848 25.04 -6.2 20.8 86 -8.2 17.2
19:30 1019 30.09 848 25.04 -6.4 20.4 85 -8.5 16.7
19:35 1019 30.09 848 25.04 -6.4 20.5 84 -8.6 16.5
19:40 1019 30.09 848 25.04 -6.2 20.9 84 -8.5 16.6
19:45 1019 30.09 848 25.04 -6.1 21 83 -8.5 16.7
19:50 1019 30.09 848 25.04 -5.9 21.4 83 -8.3 17.1
19:55 1019 30.09 848 25.04 -5.7 21.7 82 -8.3 17.1
20:00 1019 30.09 848 25.04 -5.6 22 82 -8.2 17.2
20:05 1019 30.09 848 25.04 -5.4 22.4 82 -8 17.6
20:10 1019 30.09 848 25.04 -5.2 22.6 82 -7.9 17.8
20:15 1019 30.09 848 25.04 -5.2 22.6 83 -7.7 18.1
20:20 1019 30.09 848 25.04 -5.3 22.5 83 -7.6 18.2
20:25 1019 30.09 848 25.04 -5.9 21.5 87 -7.7 18.2
20:30 1019 30.09 848 25.04 -6.3 20.7 88 -8 17.6
20:35 1019 30.09 849 25.07 -6.2 20.9 87 -8.1 17.5
20:40 1019 30.09 849 25.07 -6 21.1 86 -8 17.5
20:45 1019 30.09 849 25.07 -6 21.2 86 -7.9 17.7
20:50 1019 30.09 849 25.07 -6.2 20.9 86 -8.1 17.4
20:55 1019 30.09 849 25.07 -6.4 20.6 86 -8.4 16.9
21:00 1020 30.12 849 25.07 -6.1 20.9 86 -8.1 17.3
21:05 1020 30.12 849 25.07 -5.9 21.4 83 -8.2 17.2
21:10 1020 30.12 849 25.07 -5.6 21.9 84 -7.9 17.7
21:15 1020 30.12 849 25.07 -5.5 22.1 83 -7.9 17.7
21:20 1020 30.12 849 25.07 -5.4 22.3 81 -8.1 17.4
21:25 1020 30.12 849 25.07 -5.5 22.2 84 -7.8 17.9
21:30 1020 30.12 849 25.07 -5.9 21.3 86 -7.9 17.9
21:35 1020 30.12 849 25.07 -6 21.1 86 -8 17.7
21:40 1020 30.12 849 25.07 -6.1 21.1 86 -8 17.5
21:45 1020 30.12 849 25.07 -6.1 21.1 86 -8.1 17.4
21:50 1020 30.12 849 25.07 -6.1 21 87 -8 17.6
21:55 1020 30.12 849 25.07 -6.1 21 87 -7.9 17.8
22:00 1020 30.12 849 25.07 -6.1 21 87 -7.9 17.7
22:05 1020 30.12 849 25.07 -6.1 21.1 87 -7.9 17.7
22:10 1020 30.12 849 25.07 -6 21.3 85 -8 17.5
22:15 1020 30.12 849 25.07 -5.9 21.4 86 -7.9 17.7
22:20 1020 30.12 849 25.07 -6 21.2 86 -7.9 17.7
22:25 1020 30.12 849 25.07 -6 21.3 85 -8 17.5
22:30 1020 30.12 849 25.07 -5.9 21.3 85 -8 17.6
22:35 1020 30.12 849 25.07 -5.9 21.3 85 -8.1 17.5
22:40 1020 30.12 849 25.07 -5.8 21.5 84 -8.1 17.5
22:45 1020 30.12 849 25.07 -5.7 21.8 81 -8.4 16.9
22:50 1020 30.12 850 25.1 -5.5 22.1 82 -8.2 17.3
22:55 1020 30.12 850 25.1 -5.4 22.2 81 -8.2 17.2
23:00 1020 30.12 850 25.1 -5.4 22.3 80 -8.3 17.1
23:05 1020 30.12 850 25.1 -5.3 22.4 82 -7.9 17.8
23:10 1020 30.12 850 25.1 -5.4 22.3 84 -7.7 18.1
23:15 1020 30.12 850 25.1 -5.6 21.9 84 -7.8 17.9
23:20 1021 30.15 850 25.1 -5.6 21.9 82 -8.2 17.2
23:25 1021 30.15 850 25.1 -5.4 22.3 82 -8 17.6
23:30 1020 30.12 850 25.1 -5.3 22.4 83 -7.9 17.9
23:35 1021 30.15 850 25.1 -5.5 22.1 82 -8.2 17.3
23:40 1021 30.15 850 25.1 -5.5 22.1 82 -8.1 17.5
23:45 1021 30.15 850 25.1 -5.4 22.2 80 -8.4 16.8
23:50 1021 30.15 850 25.1 -5.3 22.4 82 -8 17.7
23:55 1021 30.15 850 25.1 -5.4 22.4 82 -8 17.6
24:00 1021 30.15 850 25.1 -5.4 22.3 79 -8.4 16.8